createdAt,value
2019-03-24T00:02:23.702Z,73.40
2019-03-24T00:05:28.632Z,73.40
2019-03-24T00:08:33.527Z,73.50
2019-03-24T00:11:38.398Z,73.40
2019-03-24T00:14:43.295Z,73.60
2019-03-24T00:17:48.134Z,73.60
2019-03-24T00:20:53.447Z,73.30
2019-03-24T00:23:58.446Z,73.40
2019-03-24T00:27:03.349Z,73.40
2019-03-24T00:30:09.050Z,73.40
2019-03-24T00:33:13.945Z,73.40
2019-03-24T00:36:18.875Z,73.40
2019-03-24T00:39:23.756Z,73.60
2019-03-24T00:42:28.603Z,73.50
2019-03-24T00:45:37.113Z,73.60
2019-03-24T00:48:40.058Z,73.70
2019-03-24T00:51:52.419Z,74.10
2019-03-24T00:54:57.291Z,74.60
2019-03-24T00:58:02.143Z,75.60
2019-03-24T01:01:07.002Z,75.00
2019-03-24T01:04:11.892Z,75.20
2019-03-24T01:07:16.819Z,75.20
2019-03-24T01:10:21.646Z,75.40
2019-03-24T01:13:26.611Z,75.20
2019-03-24T01:16:31.510Z,75.60
2019-03-24T01:19:36.357Z,75.10
2019-03-24T01:22:41.257Z,75.90
2019-03-24T01:25:46.790Z,76.50
2019-03-24T01:28:51.676Z,75.30
2019-03-24T01:31:57.144Z,75.40
2019-03-24T01:35:02.066Z,75.40
2019-03-24T01:38:07.095Z,76.70
2019-03-24T01:41:11.971Z,77.10
2019-03-24T01:44:16.867Z,76.90
2019-03-24T01:47:21.693Z,77.90
2019-03-24T01:50:26.588Z,77.50
2019-03-24T01:53:31.488Z,77.80
2019-03-24T01:56:36.408Z,78.40
2019-03-24T01:59:41.242Z,77.70
2019-03-24T02:02:46.090Z,77.80
2019-03-24T02:05:51.023Z,77.60
2019-03-24T02:08:55.939Z,77.40
2019-03-24T02:12:02.370Z,77.50
2019-03-24T02:15:07.625Z,77.10
2019-03-24T02:18:12.483Z,77.00
2019-03-24T02:21:17.434Z,77.00
2019-03-24T02:24:22.263Z,77.10
2019-03-24T02:27:27.100Z,77.00
2019-03-24T02:30:31.965Z,76.90
2019-03-24T02:33:36.883Z,76.80
2019-03-24T02:36:41.756Z,77.00
2019-03-24T02:39:46.679Z,77.40
2019-03-24T02:42:51.552Z,79.20
2019-03-24T02:45:56.407Z,78.10
2019-03-24T02:49:01.281Z,78.30
2019-03-24T02:52:06.188Z,78.30
2019-03-24T02:55:12.227Z,80.70
2019-03-24T02:58:35.957Z,79.60
2019-03-24T03:01:40.841Z,79.10
2019-03-24T03:04:45.780Z,79.60
2019-03-24T03:07:50.690Z,79.80
2019-03-24T03:10:55.613Z,79.70
2019-03-24T03:14:00.418Z,79.30
2019-03-24T03:17:05.331Z,79.60
2019-03-24T03:20:10.914Z,79.00
2019-03-24T03:23:15.846Z,79.00
2019-03-24T03:26:20.716Z,79.50
2019-03-24T03:29:25.585Z,78.80
2019-03-24T03:32:30.449Z,79.00
2019-03-24T03:35:35.365Z,79.50
2019-03-24T03:38:40.275Z,79.40
2019-03-24T03:41:45.207Z,80.20
2019-03-24T03:44:50.092Z,79.70
2019-03-24T03:48:13.742Z,79.50
2019-03-24T03:51:18.648Z,79.10
2019-03-24T03:54:23.595Z,79.00
2019-03-24T03:57:28.498Z,79.30
2019-03-24T04:00:36.097Z,79.70
2019-03-24T04:03:40.975Z,79.60
2019-03-24T04:06:45.883Z,80.10
2019-03-24T04:09:50.751Z,80.30
2019-03-24T04:12:55.783Z,79.50
2019-03-24T04:16:00.594Z,79.60
2019-03-24T04:19:05.612Z,79.00
2019-03-24T04:22:10.526Z,78.90
2019-03-24T04:25:15.482Z,78.90
2019-03-24T04:28:20.424Z,78.70
2019-03-24T04:31:25.357Z,78.70
2019-03-24T04:34:30.249Z,78.70
2019-03-24T04:37:35.158Z,79.30
2019-03-24T04:40:40.061Z,78.40
2019-03-24T04:43:44.975Z,78.30
2019-03-24T04:46:51.109Z,78.10
2019-03-24T04:49:55.985Z,78.10
2019-03-24T04:53:00.809Z,78.00
2019-03-24T04:56:05.739Z,78.00
2019-03-24T04:59:10.627Z,78.10
2019-03-24T05:02:15.470Z,77.90
2019-03-24T05:05:20.259Z,77.90
2019-03-24T05:08:25.531Z,77.60
2019-03-24T05:11:30.799Z,77.70
2019-03-24T05:14:35.723Z,77.50
2019-03-24T05:17:40.610Z,78.40
2019-03-24T05:20:45.528Z,77.50
2019-03-24T05:23:50.406Z,77.50
2019-03-24T05:26:55.352Z,77.50
2019-03-24T05:30:00.302Z,77.30
2019-03-24T05:33:05.355Z,77.20
2019-03-24T05:36:10.223Z,77.40
2019-03-24T05:39:15.121Z,77.20
2019-03-24T05:42:20.012Z,77.10
2019-03-24T05:45:24.923Z,77.00
2019-03-24T05:48:29.710Z,77.00
2019-03-24T05:51:34.622Z,77.00
2019-03-24T05:54:39.427Z,77.00
2019-03-24T05:57:44.336Z,76.90
2019-03-24T06:00:49.129Z,76.90
2019-03-24T06:03:54.039Z,76.70
2019-03-24T06:06:58.907Z,76.50
2019-03-24T06:10:03.754Z,76.40
2019-03-24T06:13:08.652Z,76.20
2019-03-24T06:16:13.581Z,76.00
2019-03-24T06:19:18.446Z,75.90
2019-03-24T06:22:23.388Z,75.80
2019-03-24T06:25:28.302Z,75.80
2019-03-24T06:28:33.195Z,75.40
2019-03-24T06:31:38.013Z,75.20
2019-03-24T06:34:42.896Z,75.20
2019-03-24T06:37:47.811Z,75.10
2019-03-24T06:40:52.762Z,74.60
2019-03-24T06:43:57.698Z,74.50
2019-03-24T06:47:02.585Z,74.50
2019-03-24T06:50:08.206Z,74.00
2019-03-24T06:53:13.119Z,74.70
2019-03-24T06:56:17.927Z,73.30
2019-03-24T06:59:22.900Z,73.40
2019-03-24T07:02:27.775Z,73.20
2019-03-24T07:05:32.633Z,72.90
2019-03-24T07:08:37.546Z,72.90
2019-03-24T07:11:42.479Z,72.60
2019-03-24T07:14:47.560Z,72.50
2019-03-24T07:17:52.476Z,72.50
2019-03-24T07:20:57.363Z,72.50
2019-03-24T07:24:02.399Z,72.50
2019-03-24T07:27:07.304Z,71.70
2019-03-24T07:30:12.882Z,71.70
2019-03-24T07:33:17.778Z,71.90
2019-03-24T07:36:22.751Z,71.70
2019-03-24T07:39:27.645Z,71.50
2019-03-24T07:42:32.549Z,71.20
2019-03-24T07:45:37.391Z,71.10
2019-03-24T07:48:42.311Z,69.60
2019-03-24T07:51:47.118Z,69.30
2019-03-24T07:54:52.036Z,68.80
2019-03-24T07:57:57.061Z,68.00
2019-03-24T08:01:01.914Z,67.80
2019-03-24T08:04:06.872Z,67.80
2019-03-24T08:07:11.788Z,68.40
2019-03-24T08:10:16.687Z,67.00
2019-03-24T08:13:21.623Z,67.40
2019-03-24T08:16:26.545Z,67.30
2019-03-24T08:19:31.478Z,66.10
2019-03-24T08:22:36.362Z,64.90
2019-03-24T08:25:41.198Z,63.00
2019-03-24T08:28:46.105Z,63.60
2019-03-24T08:31:51.040Z,63.10
2019-03-24T08:34:55.917Z,62.80
2019-03-24T08:38:00.778Z,62.20
2019-03-24T08:41:05.690Z,63.60
2019-03-24T08:44:10.598Z,63.70
2019-03-24T08:47:15.788Z,63.50
2019-03-24T08:50:20.725Z,63.40
2019-03-24T08:53:25.690Z,63.40
2019-03-24T08:56:30.688Z,63.20
2019-03-24T08:59:35.556Z,62.70
2019-03-24T09:02:40.416Z,62.40
2019-03-24T09:05:45.257Z,63.40
2019-03-24T09:08:50.192Z,63.10
2019-03-24T09:11:55.084Z,63.20
2019-03-24T09:14:59.984Z,62.60
2019-03-24T09:18:04.870Z,62.70
2019-03-24T09:21:09.787Z,62.60
2019-03-24T09:24:14.682Z,62.50
2019-03-24T09:27:19.610Z,62.80
2019-03-24T09:30:36.015Z,62.50
2019-03-24T09:33:40.955Z,62.50
2019-03-24T09:36:45.875Z,62.00
2019-03-24T09:39:50.770Z,62.10
2019-03-24T09:42:55.683Z,61.80
2019-03-24T09:46:00.584Z,61.60
2019-03-24T09:49:05.559Z,61.40
2019-03-24T09:52:10.494Z,60.60
2019-03-24T09:55:15.445Z,59.80
2019-03-24T09:58:20.374Z,59.40
2019-03-24T10:01:25.270Z,59.40
2019-03-24T10:04:30.132Z,59.10
2019-03-24T10:07:35.011Z,58.60
2019-03-24T10:10:39.884Z,58.20
2019-03-24T10:13:44.801Z,58.00
2019-03-24T10:16:49.726Z,57.80
2019-03-24T10:19:54.702Z,57.50
2019-03-24T10:22:59.549Z,57.10
2019-03-24T10:26:04.491Z,56.80
2019-03-24T10:29:09.387Z,56.10
2019-03-24T10:32:14.278Z,56.10
2019-03-24T10:35:19.213Z,55.70
2019-03-24T10:38:24.080Z,55.40
2019-03-24T10:41:28.934Z,55.20
2019-03-24T10:44:33.927Z,54.70
2019-03-24T10:47:39.922Z,54.50
2019-03-24T10:50:44.833Z,53.90
2019-03-24T10:53:49.774Z,53.90
2019-03-24T10:56:54.691Z,51.10
2019-03-24T10:59:59.662Z,49.80
2019-03-24T11:03:04.547Z,51.90
2019-03-24T11:06:09.462Z,51.60
2019-03-24T11:09:14.376Z,51.20
2019-03-24T11:12:19.450Z,51.10
2019-03-24T11:15:24.337Z,50.90
2019-03-24T11:18:29.263Z,50.40
2019-03-24T11:21:34.341Z,50.20
2019-03-24T11:24:39.290Z,49.80
2019-03-24T11:27:44.258Z,49.50
2019-03-24T11:30:49.171Z,49.00
2019-03-24T11:33:54.062Z,49.10
2019-03-24T11:36:58.897Z,43.50
2019-03-24T11:40:03.720Z,41.60
2019-03-24T11:43:08.658Z,40.80
2019-03-24T11:46:13.550Z,42.10
2019-03-24T11:49:17.791Z,43.10
2019-03-24T11:52:23.045Z,43.10
2019-03-24T11:55:28.018Z,43.80
2019-03-24T11:58:32.949Z,43.80
2019-03-24T12:01:38.571Z,44.00
2019-03-24T12:04:43.592Z,44.10
2019-03-24T12:07:48.555Z,43.80
2019-03-24T12:10:53.454Z,44.00
2019-03-24T12:13:58.380Z,44.00
2019-03-24T12:17:03.329Z,44.20
2019-03-24T12:20:09.830Z,43.90
2019-03-24T12:23:14.907Z,43.30
2019-03-24T12:26:19.855Z,43.40
2019-03-24T12:29:24.961Z,43.50
2019-03-24T12:32:29.895Z,43.10
2019-03-24T12:35:34.832Z,42.60
2019-03-24T12:38:39.733Z,42.80
2019-03-24T12:41:44.641Z,43.00
2019-03-24T12:44:49.584Z,43.00
2019-03-24T12:47:54.486Z,42.80
2019-03-24T12:50:59.411Z,43.20
2019-03-24T12:54:04.661Z,43.20
2019-03-24T12:57:09.598Z,43.10
2019-03-24T13:00:19.070Z,43.20
2019-03-24T13:03:24.024Z,43.10
2019-03-24T13:06:28.932Z,42.80
2019-03-24T13:09:33.852Z,42.70
2019-03-24T13:12:38.720Z,42.80
2019-03-24T13:15:43.690Z,42.60
2019-03-24T13:18:48.579Z,42.60
2019-03-24T13:21:53.569Z,42.50
2019-03-24T13:24:58.684Z,42.60
2019-03-24T13:28:03.692Z,42.50
2019-03-24T13:31:08.722Z,42.30
2019-03-24T13:34:13.657Z,42.30
2019-03-24T13:37:18.667Z,42.60
2019-03-24T13:40:23.619Z,42.30
2019-03-24T13:43:28.578Z,42.10
2019-03-24T13:46:33.534Z,37.20
2019-03-24T13:49:38.368Z,38.60
2019-03-24T13:52:43.302Z,38.60
2019-03-24T13:55:48.359Z,38.60
2019-03-24T13:58:53.466Z,37.00
2019-03-24T14:01:58.345Z,36.60
2019-03-24T14:05:03.298Z,35.80
2019-03-24T14:08:08.188Z,35.90
2019-03-24T14:11:13.148Z,36.10
2019-03-24T14:14:17.988Z,34.50
2019-03-24T14:17:22.923Z,34.40
2019-03-24T14:20:27.841Z,33.40
2019-03-24T14:23:32.770Z,33.90
2019-03-24T14:26:37.672Z,34.10
2019-03-24T14:29:42.535Z,37.00
2019-03-24T14:32:47.353Z,37.70
2019-03-24T14:35:52.272Z,38.10
2019-03-24T14:38:57.104Z,39.20
2019-03-24T14:42:02.020Z,40.00
2019-03-24T14:45:07.952Z,40.30
2019-03-24T14:48:12.880Z,41.30
2019-03-24T14:51:17.774Z,43.40
2019-03-24T14:54:22.763Z,44.10
2019-03-24T14:57:27.656Z,44.70
2019-03-24T15:00:37.482Z,45.50
2019-03-24T15:03:42.411Z,45.00
2019-03-24T15:06:47.342Z,45.30
2019-03-24T15:09:52.303Z,45.50
2019-03-24T15:12:57.175Z,43.90
2019-03-24T15:16:02.088Z,43.80
2019-03-24T15:19:07.158Z,44.20
2019-03-24T15:22:12.005Z,44.10
2019-03-24T15:25:17.011Z,44.90
2019-03-24T15:28:21.860Z,44.00
2019-03-24T15:31:26.860Z,44.40
2019-03-24T15:34:31.772Z,43.40
2019-03-24T15:37:36.700Z,44.00
2019-03-24T15:40:41.901Z,44.40
2019-03-24T15:43:46.817Z,45.00
2019-03-24T15:46:51.729Z,45.00
2019-03-24T15:49:56.567Z,45.00
2019-03-24T15:53:01.488Z,44.90
2019-03-24T15:56:07.547Z,45.30
2019-03-24T15:59:12.436Z,45.40
2019-03-24T16:02:17.332Z,44.70
2019-03-24T16:05:22.252Z,44.60
2019-03-24T16:08:45.979Z,45.30
2019-03-24T16:11:50.948Z,44.90
2019-03-24T16:14:55.914Z,44.80
2019-03-24T16:18:00.831Z,45.00
2019-03-24T16:21:09.007Z,45.00
2019-03-24T16:24:13.903Z,45.20
2019-03-24T16:27:18.765Z,45.50
2019-03-24T16:30:23.686Z,45.90
2019-03-24T16:33:29.653Z,46.10
2019-03-24T16:36:34.569Z,46.40
2019-03-24T16:39:39.455Z,46.10
2019-03-24T16:42:44.375Z,46.10
2019-03-24T16:45:49.530Z,46.10
2019-03-24T16:48:54.453Z,46.40
2019-03-24T16:51:59.399Z,46.60
2019-03-24T16:55:04.554Z,46.90
2019-03-24T16:58:09.472Z,47.70
2019-03-24T17:01:14.366Z,50.60
2019-03-24T17:04:19.397Z,50.20
2019-03-24T17:07:25.977Z,53.10
2019-03-24T17:10:30.942Z,52.50
2019-03-24T17:13:35.905Z,53.70
2019-03-24T17:16:40.838Z,54.10
2019-03-24T17:19:45.674Z,53.50
2019-03-24T17:22:50.600Z,53.20
2019-03-24T17:25:55.739Z,52.80
2019-03-24T17:29:00.699Z,53.30
2019-03-24T17:32:05.603Z,54.10
2019-03-24T17:35:11.439Z,54.10
2019-03-24T17:38:16.371Z,55.20
2019-03-24T17:41:21.371Z,54.80
2019-03-24T17:44:26.278Z,55.20
2019-03-24T17:47:31.404Z,55.20
2019-03-24T17:50:36.290Z,55.80
2019-03-24T17:53:41.283Z,55.50
2019-03-24T17:56:46.274Z,55.10
2019-03-24T17:59:51.258Z,55.80
2019-03-24T18:02:56.169Z,56.80
2019-03-24T18:06:01.279Z,56.80
2019-03-24T18:09:08.819Z,57.40
2019-03-24T18:12:13.866Z,57.40
2019-03-24T18:15:18.733Z,57.80
2019-03-24T18:18:23.675Z,58.20
2019-03-24T18:21:28.672Z,58.30
2019-03-24T18:24:33.638Z,58.60
2019-03-24T18:27:38.539Z,59.10
2019-03-24T18:30:44.408Z,59.30
2019-03-24T18:33:49.241Z,59.90
2019-03-24T18:36:54.226Z,60.00
2019-03-24T18:39:59.119Z,59.80
2019-03-24T18:43:04.079Z,59.80
2019-03-24T18:46:09.016Z,59.40
2019-03-24T18:49:14.085Z,60.00
2019-03-24T18:52:22.765Z,60.80
2019-03-24T18:55:25.523Z,60.00
2019-03-24T18:58:32.023Z,60.50
2019-03-24T19:01:37.131Z,60.10
2019-03-24T19:04:42.051Z,60.50
2019-03-24T19:07:47.016Z,59.50
2019-03-24T19:10:51.937Z,58.50
2019-03-24T19:13:56.939Z,58.50
2019-03-24T19:17:01.847Z,58.80
2019-03-24T19:20:08.878Z,58.70
2019-03-24T19:23:13.797Z,59.20
2019-03-24T19:26:18.715Z,58.10
2019-03-24T19:29:23.620Z,58.00
2019-03-24T19:32:29.236Z,58.10
2019-03-24T19:35:34.199Z,58.30
2019-03-24T19:38:39.400Z,58.20
2019-03-24T19:41:44.405Z,58.10
2019-03-24T19:44:49.412Z,58.10
2019-03-24T19:47:54.480Z,58.10
2019-03-24T19:50:59.459Z,58.10
2019-03-24T19:54:04.690Z,58.20
2019-03-24T19:57:09.692Z,58.20
2019-03-24T20:00:15.187Z,58.20
2019-03-24T20:03:20.124Z,58.50
2019-03-24T20:06:24.968Z,58.40
2019-03-24T20:09:29.896Z,58.20
2019-03-24T20:12:35.031Z,58.40
2019-03-24T20:15:39.994Z,58.40
2019-03-24T20:18:44.962Z,58.30
2019-03-24T20:21:50.134Z,58.30
2019-03-24T20:24:55.047Z,58.50
2019-03-24T20:27:59.903Z,58.40
2019-03-24T20:31:04.738Z,59.00
2019-03-24T20:37:18.756Z,59.30
